Nearby METAR Reports

 

KSJC - San Jose, California, USA
Distance from station: NE 14km
Actualización: 18/06/2021 00:53
Parcialmente nuboso
Parcialmente nuboso
 Viento del NNO
Viento: NNO 26 km/h
Temperatura: 34°C
Rocío: 13°C
Humedad: 28%
Barómetro: 1006.4 hPa
Clouds: Parcialmente nuboso
Visibilidad: 16 km
Cloud details: Few Clouds 2591 m
Parcialmente nuboso 3048 m
2021/06/17 22:53 KSJC 172253Z 33014KT 10SM FEW085 SCT100 34/13 A2972 RMK AO2 SLP065 T03390133
KNUQ - Moffett Nas/Mtn, California, USA
Distance from station: N 14km
Actualización: 18/06/2021 00:50
Despejado
Despejado
 Viento del NNO
Viento: NNO 17 km/h, Racha: 31 km/h
Temperatura: 30°C
Rocío: 13°C
Humedad: 35%
Barómetro: 1007.1 hPa
Clouds: Despejado
Visibilidad: 16 km
2021/06/17 22:50 KNUQ 172250Z AUTO 34009G17KT 10SM CLR 30/13 A2974 RMK AO2
 
KPAO - Palo Alto, California, USA
Distance from station: NNO 23km
Actualización: 18/06/2021 00:47
Despejado
Despejado
 Viento del NNO
Viento: NNO 24 km/h
Temperatura: 29°C
Heat Index: 29°C
Rocío: 16°C
Humedad: 45%
Barómetro: 1007.1 hPa
Clouds: Despejado
Visibilidad: 16 km
2021/06/17 22:47 KPAO 172247Z 34013KT 10SM SKC 29/16 A2974
KRHV - San Jose/Reid, California, USA
Distance from station: ENE 19km
Actualización: 18/06/2021 00:50
Despejado
Despejado
 Viento del ONO
Viento: ONO 19 km/h
Temperatura: 38°C
Rocío: 9°C
Humedad: 17%
Barómetro: 1006.8 hPa
Clouds: Despejado
Visibilidad: 16 km
2021/06/17 22:50 KRHV 172250Z 30010KT 10SM SKC 38/09 A2973
 
KOAK - Oakland, California, USA
Distance from station: NNO 50km
Actualización: 18/06/2021 00:53
Few Clouds
Few Clouds
 Viento del ONO
Viento: ONO 22 km/h
Temperatura: 28°C
Heat Index: 27°C
Rocío: 13°C
Humedad: 40%
Barómetro: 1007.5 hPa
Clouds: Few Clouds
Visibilidad: 16 km
Cloud details: Few Clouds 5486 m
Few Clouds 7620 m
2021/06/17 22:53 KOAK 172253Z 30012KT 10SM FEW180 FEW250 28/13 A2975 RMK AO2 SLP075 T02780128
KSQL - San Carlos Airpo, California, USA
Distance from station: NO 34km
Actualización: 18/06/2021 00:56
Despejado
Despejado
 Viento del ONO
Viento: ONO 15 km/h
Temperatura: 36°C
Rocío: 9°C
Humedad: 19%
Barómetro: 1007.1 hPa
Clouds: Despejado
Visibilidad: 16 km
2021/06/17 22:56 KSQL 172256Z 30008KT 10SM SKC 36/09 A2974
 
KSFO - San Francisco, California, USA
Distance from station: NO 49km
Actualización: 18/06/2021 00:56
Parcialmente nuboso
Parcialmente nuboso
 Viento del ONO
Viento: ONO 44 km/h, Racha: 56 km/h
Temperatura: 27°C
Rocío: 10°C
Humedad: 34%
Barómetro: 1007.5 hPa
Clouds: Parcialmente nuboso
Visibilidad: 16 km
Cloud details: Parcialmente nuboso 6096 m
2021/06/17 22:56 KSFO 172256Z 30024G30KT 10SM SCT200 27/10 A2975 RMK AO2 PK WND 30030/2255 SLP074 T02670100
KE16 - San Martin, California, USA
Distance from station: ESE 43km
Actualización: 18/06/2021 00:55
Despejado
Despejado
 Viento del NO
Viento: NO 19 km/h, Racha: 30 km/h
Temperatura: 39°C
Rocío: 6°C
Humedad: 13%
Barómetro: 1007.1 hPa
Clouds: Despejado
Visibilidad: 16 km
2021/06/17 22:55 KE16 172255Z AUTO 31010G16KT 10SM CLR 39/06 A2974 RMK AO2 PWINO PNO
 
KWVI - Watsonville, California, USA
Distance from station: SSE 44km
Actualización: 18/06/2021 00:53
Despejado
Despejado
 Viento del S
Viento: S 17 km/h
Temperatura: 23°C
Rocío: 13°C
Humedad: 53%
Barómetro: 1008.8 hPa
Clouds: Despejado
Visibilidad: 14 km
2021/06/17 22:53 KWVI 172253Z AUTO 19009KT 9SM CLR 23/13 A2979 RMK AO2 SLP085 T02280128
KHAF - Half Moon Bay, California, USA
Distance from station: ONO 50km
Actualización: 18/06/2021 00:55
Haze, Despejado
Haze, Despejado
 Viento del NNO
Viento: NNO 31 km/h
Temperatura: 17°C
Rocío: 11°C
Humedad: 68%
Barómetro: 1009.5 hPa
Resumen: Haze
Clouds: Despejado
Visibilidad: 8 km
2021/06/17 22:55 KHAF 172255Z AUTO 33017KT 5SM HZ CLR 17/11 A2981 RMK AO2
 
KHWD - Hayward, California, USA
Distance from station: N 44km
Actualización: 18/06/2021 00:54
Despejado
Despejado
 Viento del ONO
Viento: ONO 24 km/h
Temperatura: 33°C
Rocío: 13°C
Humedad: 30%
Barómetro: 1007.1 hPa
Clouds: Despejado
Visibilidad: 16 km
2021/06/17 22:54 KHWD 172254Z 29013KT 10SM CLR 33/13 A2974 RMK AO2 SLP079 T03280128
KLVK - Livermore, California, USA
Distance from station: NNE 51km
Actualización: 18/06/2021 00:53
Despejado
Despejado
 Viento del O
Viento: O 19 km/h
Temperatura: 41°C
Rocío: 3°C
Humedad: 9%
Barómetro: 1006.4 hPa
Clouds: Despejado
Visibilidad: 16 km
2021/06/17 22:53 KLVK 172253Z 27010KT 10SM CLR 41/03 A2972 RMK AO2 SLP058 T04110028